Flight Track Log - Related Links

Times and Time Zones

All times are in EDT time to prevent confusion due to time zone crossing. See the RPA3275 flight status page for this flight to view local times or setup timezone preferences in your user account.

Time Position Orientation Groundspeed Altitude Reporting Facility
EDT Latitude Longitude Course Direction KTS MPH feet Rate Location/Type
Thu 07:02:29 AM 42.7653 -73.8061 220° Southwest 140 161 1,500  Level Boston Center
Thu 07:03:35 AM 42.7811 -73.8658 290° West 211 243 3,500 2,165 Climbing Boston Center
Thu 07:04:00 AM 42.7333 -74.1567 270° West  Level FlightAware Approximate
Thu 07:04:42 AM 42.7736 -73.9619 264° West 255 293 6,300  Level Boston Center
Thu 07:05:00 AM 42.7333 -74.2756 270° West  Level FlightAware Approximate
Thu 07:05:42 AM 42.7661 -74.0578 264° West 260 299 9,500  Level Boston Center
Thu 07:06:00 AM 42.6860 -74.3679 220° Southwest  Level FlightAware Approximate
Thu 07:06:42 AM 42.7375 -74.1617 249° West 277 319 11,500  Level Boston Center
Thu 07:07:00 AM 42.6187 -74.4436 220° Southwest  Level FlightAware Approximate
Thu 07:07:42 AM 42.6692 -74.2586 226° Southwest 329 379 14,100  Level Boston Center
Thu 07:08:42 AM 42.6117 -74.3417 227° Southwest 335 386 16,200 2,100 Climbing Boston Center
Thu 07:09:42 AM 42.5392 -74.4436 226° Southwest 341 392 18,300 1,400 Climbing Boston Center
Thu 07:10:42 AM 42.4792 -74.5317 227° Southwest 346 398 19,000 350 Climbing Boston Center
Thu 07:11:42 AM 42.4042 -74.6361 226° Southwest 351 404 19,000  Level Boston Center
Thu 07:12:42 AM 42.3528 -74.7072 226° Southwest 345 397 19,000  Level Boston Center
Thu 07:15:03 AM 42.1983 -74.9278 227° Southwest 334 384 19,000  Level New York Center
Thu 07:16:04 AM 42.1183 -75.0094 217° Southwest 334 384 19,000  Level New York Center
Thu 07:17:02 AM 42.0453 -75.0689 211° Southwest 340 391 19,000  Level New York Center
Thu 07:18:03 AM 41.9597 -75.1386 211° Southwest 345 397 19,000  Level New York Center
Thu 07:19:04 AM 41.8781 -75.2056 211° Southwest 345 397 19,000  Level New York Center
Thu 07:20:04 AM 41.7986 -75.2700 211° Southwest 345 397 19,000 -496 Level New York Center
Thu 07:21:05 AM 41.7256 -75.3289 211° Southwest 350 403 18,000 -1,462 Descending New York Center
Thu 07:22:03 AM 41.6394 -75.4008 212° Southwest 350 403 16,100 -1,815 Descending New York Center
Thu 07:23:04 AM 41.5622 -75.4592 209° Southwest 345 397 14,400 -1,623 Descending New York Center
Thu 07:24:05 AM 41.4889 -75.5206 212° Southwest 326 375 12,800 -1,210 Descending New York Center
Thu 07:25:03 AM 41.4222 -75.5739 211° Southwest 313 360 12,000 -407 Descending New York Center
Thu 07:26:03 AM 41.3428 -75.6344 210° Southwest 308 354 12,000  Level New York Center
Thu 07:27:04 AM 41.2675 -75.6869 208° Southwest 313 360 12,000  Level New York Center
Thu 07:28:03 AM 41.1800 -75.6889 181° South 307 353 12,000  Level New York Center
Thu 07:29:02 AM 41.0947 -75.6883 180° South 312 359 12,000  Level New York Center
Thu 07:30:03 AM 41.0056 -75.6764 174° South 312 359 12,000  Level New York Center
Thu 07:31:03 AM 40.9197 -75.6372 161° South 323 372 12,000  Level New York Center
Thu 07:32:04 AM 40.8419 -75.6042 162° South 323 372 12,000  Level New York Center
Thu 07:33:04 AM 40.7558 -75.5653 161° South 328 377 12,000 -446 Level New York Center
Thu 07:34:05 AM 40.6597 -75.5228 161° South 328 377 11,100 -958 Descending New York Center
Thu 07:35:03 AM 40.5736 -75.4869 162° South 328 377 10,100 -550 Descending New York Center
Thu 07:36:05 AM 40.4917 -75.4511 162° South 323 372 10,000 -295 Descending New York Center
Thu 07:37:05 AM 40.4147 -75.3969 152° Southeast 318 366 9,500 -1,017 Descending New York Center
Thu 07:38:03 AM 40.3483 -75.3353 145° Southeast 307 353 8,000 -1,450 Descending New York Center
Thu 07:39:05 AM 40.2839 -75.2739 144° Southeast 298 343 6,600 -1,008 Descending New York Center
Thu 07:40:02 AM 40.2256 -75.2211 145° Southeast 293 337 6,000 -305 Descending New York Center
Thu 07:41:03 AM 40.1486 -75.1619 150° Southeast 287 330 6,000 63 Level New York Center
Thu 07:41:38 AM 40.1167 -75.1167 133° Southeast 285 328 6,100  Climbing Philadelphia TRACON
Thu 07:42:26 AM 40.0667 -75.0833 153° Southeast 241 277 6,000 -389 Descending Philadelphia TRACON
Thu 07:43:26 AM 40.0167 -75.0500 153° Southeast 187 215 5,400 -950 Descending Philadelphia TRACON
Thu 07:44:26 AM 39.9667 -75.0333 166° South 193 222 4,100 -1,300 Descending Philadelphia TRACON
Thu 07:45:26 AM 39.9167 -75.0333 180° South 185 213 2,800 -1,050 Descending Philadelphia TRACON
Thu 07:46:26 AM 39.9000 -75.1000 252° West 162 186 2,000 -800 Descending Philadelphia TRACON

Login

Don't have an account? Register now (free) for customized features, flight alerts, and more!